LFGM weather

Montceau Les Mines Airfield
Bourgogne-Franche-Comté, France

Public forecast

Using degrees Celsius for public forecast. Weather courtesy of forecast.io.

Closest aviation weather report (METAR) to Montceau Les Mines Airfield

Closest report is Saint-Yan Airport, 17.6 nm (32.5 km) SW. Retrieved 2020/04/02 12:00 UTC (21 minutes ago):

LFLN 021200Z AUTO 31005KT 240V360 CAVOK 13/M01 Q1014

Closest aviation forecast (TAF) to Montceau Les Mines Airfield

Forecast is more than 12 hours old.

Closest forecast is Dijon-Bourgogne Airport, 50.5 nm (93.6 km) NE. Retrieved 2015/06/01 00:11 UTC (5 years ago):

TAF LFSD 010600Z 0100/0124 CNL